createdAt,value
2023-03-06T00:00:17.988Z,2.30
2023-03-06T00:02:45.148Z,2.20
2023-03-06T00:05:13.727Z,2.80
2023-03-06T00:07:40.534Z,2.35
2023-03-06T00:10:07.435Z,2.75
2023-03-06T00:12:34.105Z,2.67
2023-03-06T00:15:00.591Z,2.63
2023-03-06T00:17:28.235Z,2.50
2023-03-06T00:19:54.960Z,2.65
2023-03-06T00:22:21.482Z,2.75
2023-03-06T00:24:48.024Z,2.45
2023-03-06T00:27:14.524Z,2.22
2023-03-06T00:29:41.207Z,3.03
2023-03-06T00:32:07.858Z,3.20
2023-03-06T00:34:34.463Z,2.40
2023-03-06T00:37:00.975Z,2.50
2023-03-06T00:39:27.720Z,2.72
2023-03-06T00:41:56.267Z,3.17
2023-03-06T00:44:24.803Z,3.08
2023-03-06T00:46:51.387Z,3.05
2023-03-06T00:49:17.959Z,2.75
2023-03-06T00:51:45.460Z,2.83
2023-03-06T00:54:11.974Z,2.97
2023-03-06T00:56:38.570Z,3.38
2023-03-06T00:59:05.464Z,2.75
2023-03-06T01:01:32.164Z,2.92
2023-03-06T01:03:58.664Z,3.22
2023-03-06T01:06:25.293Z,2.88
2023-03-06T01:08:51.976Z,3.05
2023-03-06T01:11:19.578Z,3.15
2023-03-06T01:13:46.202Z,2.95
2023-03-06T01:16:15.524Z,3.03
2023-03-06T01:18:42.947Z,3.25
2023-03-06T01:21:09.496Z,2.90
2023-03-06T01:23:36.346Z,2.92
2023-03-06T01:26:04.105Z,2.65
2023-03-06T01:28:31.494Z,4.00
2023-03-06T01:30:58.079Z,3.30
2023-03-06T01:33:24.658Z,2.85
2023-03-06T01:35:51.277Z,3.10
2023-03-06T01:38:17.939Z,3.50
2023-03-06T01:40:44.850Z,4.15
2023-03-06T01:43:32.716Z,3.05
2023-03-06T01:46:25.210Z,3.83
2023-03-06T01:48:59.002Z,4.00
2023-03-06T01:51:30.536Z,3.33
2023-03-06T01:53:59.951Z,3.40
2023-03-06T01:56:28.634Z,3.70
2023-03-06T01:58:55.978Z,3.63
2023-03-06T02:01:23.047Z,3.92
2023-03-06T02:03:50.366Z,3.70
2023-03-06T02:06:21.537Z,3.40
2023-03-06T02:08:51.746Z,4.03
2023-03-06T02:11:23.803Z,3.80
2023-03-06T02:13:53.735Z,3.63
2023-03-06T02:16:26.577Z,3.92
2023-03-06T02:18:53.484Z,4.30
2023-03-06T02:21:26.735Z,3.35
2023-03-06T02:24:15.230Z,4.05
2023-03-06T02:26:46.660Z,3.85
2023-03-06T02:29:18.161Z,4.25
2023-03-06T02:31:44.783Z,3.33
2023-03-06T02:34:14.284Z,3.85
2023-03-06T02:36:55.534Z,3.80
2023-03-06T02:39:26.207Z,3.38
2023-03-06T02:41:52.973Z,3.85
2023-03-06T02:44:22.333Z,3.40
2023-03-06T02:46:48.997Z,3.28
2023-03-06T02:49:15.571Z,3.10
2023-03-06T02:51:42.664Z,3.30
2023-03-06T02:54:09.152Z,3.38
2023-03-06T02:56:35.692Z,3.75
2023-03-06T02:59:02.580Z,3.50
2023-03-06T03:01:29.174Z,3.88
2023-03-06T03:03:55.880Z,3.85
2023-03-06T03:06:22.472Z,3.63
2023-03-06T03:08:50.203Z,3.90
2023-03-06T03:11:18.091Z,3.63
2023-03-06T03:13:44.792Z,3.95
2023-03-06T03:16:16.885Z,4.07
2023-03-06T03:18:44.923Z,3.72
2023-03-06T03:21:13.721Z,3.65
2023-03-06T03:23:41.893Z,3.30
2023-03-06T03:26:14.922Z,3.28
2023-03-06T03:28:45.631Z,2.67
2023-03-06T03:31:15.063Z,2.53
2023-03-06T03:33:41.701Z,2.55
2023-03-06T03:36:09.017Z,2.10
2023-03-06T03:38:39.536Z,2.17
2023-03-06T03:41:07.748Z,2.20
2023-03-06T03:43:34.802Z,2.08
2023-03-06T03:46:01.518Z,2.15
2023-03-06T03:48:28.813Z,2.70
2023-03-06T03:51:04.603Z,2.05
2023-03-06T03:53:31.895Z,2.20
2023-03-06T03:55:58.498Z,1.85
2023-03-06T03:58:51.763Z,1.65
2023-03-06T04:01:18.838Z,2.17
2023-03-06T04:03:45.691Z,1.80
2023-03-06T04:06:13.969Z,1.75
2023-03-06T04:08:40.677Z,1.88
2023-03-06T04:11:07.206Z,2.10
2023-03-06T04:13:33.706Z,1.70
2023-03-06T04:16:00.529Z,1.90
2023-03-06T04:18:29.895Z,1.95
2023-03-06T04:21:00.771Z,1.90
2023-03-06T04:23:27.836Z,1.80
2023-03-06T04:25:54.980Z,1.80
2023-03-06T04:28:22.568Z,1.85
2023-03-06T04:30:49.358Z,1.60
2023-03-06T04:33:16.994Z,1.50
2023-03-06T04:35:43.868Z,1.80
2023-03-06T04:38:16.485Z,1.80
2023-03-06T04:40:44.945Z,2.67
2023-03-06T04:43:11.650Z,2.30
2023-03-06T04:45:38.310Z,2.40
2023-03-06T04:48:05.066Z,2.85
2023-03-06T04:50:32.457Z,2.70
2023-03-06T04:53:01.164Z,2.20
2023-03-06T04:55:28.305Z,2.53
2023-03-06T04:57:55.600Z,1.75
2023-03-06T05:00:24.612Z,1.80
2023-03-06T05:02:51.451Z,2.13
2023-03-06T05:05:18.854Z,1.67
2023-03-06T05:07:46.126Z,2.42
2023-03-06T05:10:16.067Z,1.63
2023-03-06T05:12:42.969Z,2.05
2023-03-06T05:15:11.641Z,1.98
2023-03-06T05:17:38.468Z,2.15
2023-03-06T05:20:07.796Z,2.88
2023-03-06T05:22:34.570Z,2.08
2023-03-06T05:25:05.390Z,1.95
2023-03-06T05:27:32.413Z,1.48
2023-03-06T05:29:59.139Z,1.70
2023-03-06T05:32:28.159Z,1.63
2023-03-06T05:34:54.828Z,1.40
2023-03-06T05:37:22.914Z,1.40
2023-03-06T05:39:51.275Z,1.45
2023-03-06T05:42:18.353Z,1.60
2023-03-06T05:44:45.199Z,1.60
2023-03-06T05:47:12.032Z,1.48
2023-03-06T05:49:39.341Z,1.50
2023-03-06T05:52:33.459Z,1.88
2023-03-06T05:57:27.804Z,1.80
2023-03-06T05:59:54.486Z,2.15
2023-03-06T06:02:21.516Z,2.13
2023-03-06T06:04:50.758Z,2.47
2023-03-06T06:07:20.403Z,2.28
2023-03-06T06:09:46.996Z,2.55
2023-03-06T06:12:14.224Z,2.70
2023-03-06T06:14:40.824Z,2.70
2023-03-06T06:17:07.550Z,1.92
2023-03-06T06:19:34.143Z,2.10
2023-03-06T06:22:02.569Z,2.47
2023-03-06T06:24:29.920Z,2.08
2023-03-06T06:26:58.058Z,2.75
2023-03-06T06:29:26.780Z,2.92
2023-03-06T06:31:54.631Z,3.63
2023-03-06T06:34:22.721Z,3.65
2023-03-06T06:36:52.202Z,2.60
2023-03-06T06:39:21.185Z,3.05
2023-03-06T06:41:59.813Z,3.15
2023-03-06T06:44:32.653Z,3.65
2023-03-06T06:49:50.232Z,3.53
2023-03-06T06:52:18.573Z,4.70
2023-03-06T06:54:45.362Z,3.75
2023-03-06T06:57:13.176Z,3.00
2023-03-06T06:59:41.415Z,2.33
2023-03-06T07:02:10.075Z,1.92
2023-03-06T07:04:36.643Z,2.10
2023-03-06T07:07:03.462Z,1.58
2023-03-06T07:09:30.856Z,1.42
2023-03-06T07:11:58.219Z,1.40
2023-03-06T07:14:24.951Z,1.27
2023-03-06T07:16:51.525Z,1.40
2023-03-06T07:19:18.023Z,1.77
2023-03-06T07:21:44.586Z,1.42
2023-03-06T07:24:11.199Z,1.85
2023-03-06T07:26:37.771Z,1.88
2023-03-06T07:29:04.578Z,1.85
2023-03-06T07:31:31.404Z,1.60
2023-03-06T07:33:58.306Z,1.73
2023-03-06T07:36:24.920Z,1.70
2023-03-06T07:38:51.495Z,1.75
2023-03-06T07:41:22.164Z,1.60
2023-03-06T07:43:49.205Z,1.40
2023-03-06T07:46:17.074Z,1.63
2023-03-06T07:48:44.370Z,1.40
2023-03-06T07:51:20.204Z,1.52
2023-03-06T07:53:47.709Z,1.48
2023-03-06T07:56:14.482Z,1.50
2023-03-06T07:58:43.674Z,1.38
2023-03-06T08:01:15.901Z,1.70
2023-03-06T08:03:42.916Z,1.67
2023-03-06T08:06:10.725Z,1.25
2023-03-06T08:08:41.722Z,1.23
2023-03-06T08:11:10.191Z,1.08
2023-03-06T08:13:38.795Z,1.10
2023-03-06T08:16:05.983Z,1.17
2023-03-06T08:18:33.597Z,1.10
2023-03-06T08:21:17.401Z,1.15
2023-03-06T08:23:44.471Z,1.25
2023-03-06T08:26:13.794Z,1.10
2023-03-06T08:28:40.759Z,0.98
2023-03-06T08:31:32.275Z,1.25
2023-03-06T08:34:01.670Z,1.10
2023-03-06T08:36:28.926Z,1.40
2023-03-06T08:38:56.874Z,1.60
2023-03-06T08:41:23.581Z,1.40
2023-03-06T08:43:50.435Z,2.13
2023-03-06T08:46:18.757Z,1.90
2023-03-06T08:48:47.665Z,2.30
2023-03-06T08:51:14.711Z,2.10
2023-03-06T08:53:43.652Z,2.70
2023-03-06T08:56:23.254Z,2.38
2023-03-06T08:58:50.356Z,2.13
2023-03-06T09:01:22.457Z,2.15
2023-03-06T09:03:50.161Z,2.25
2023-03-06T09:06:17.257Z,2.20
2023-03-06T09:08:44.457Z,2.20
2023-03-06T09:11:12.647Z,2.13
2023-03-06T09:13:39.628Z,2.60
2023-03-06T09:16:06.824Z,2.40
2023-03-06T09:18:33.375Z,2.28
2023-03-06T09:21:00.236Z,2.08
2023-03-06T09:23:27.061Z,2.13
2023-03-06T09:25:55.361Z,2.88
2023-03-06T09:28:21.994Z,2.00
2023-03-06T09:30:48.582Z,2.13
2023-03-06T09:33:15.449Z,2.28
2023-03-06T09:35:47.304Z,2.20
2023-03-06T09:38:13.896Z,2.00
2023-03-06T09:41:04.777Z,2.40
2023-03-06T09:43:39.057Z,1.80
2023-03-06T09:46:38.281Z,3.17
2023-03-06T09:49:33.772Z,2.85
2023-03-06T09:52:29.155Z,4.88
2023-03-06T09:55:02.362Z,3.08
2023-03-06T09:57:36.766Z,3.78
2023-03-06T10:00:16.804Z,2.72
2023-03-06T10:02:46.357Z,1.95
2023-03-06T10:05:38.792Z,2.15
2023-03-06T10:08:21.326Z,2.15
2023-03-06T10:11:02.326Z,2.90
2023-03-06T10:13:46.523Z,2.55
2023-03-06T10:16:27.328Z,2.65
2023-03-06T10:18:56.629Z,2.38
2023-03-06T10:21:44.148Z,2.40
2023-03-06T10:24:34.149Z,2.60
2023-03-06T10:27:23.444Z,2.30
2023-03-06T10:30:04.461Z,2.00
2023-03-06T10:32:54.890Z,2.10
2023-03-06T10:35:31.208Z,2.25
2023-03-06T10:38:21.678Z,2.10
2023-03-06T10:41:10.671Z,2.30
2023-03-06T10:43:42.365Z,2.00
2023-03-06T10:46:11.904Z,2.30
2023-03-06T10:48:42.143Z,2.83
2023-03-06T10:51:18.614Z,2.92
2023-03-06T10:54:00.481Z,2.92
2023-03-06T10:56:39.593Z,4.72
2023-03-06T10:59:15.229Z,4.60
2023-03-06T11:01:45.148Z,3.53
2023-03-06T11:04:27.453Z,2.70
2023-03-06T11:07:06.425Z,2.55
2023-03-06T11:09:34.260Z,2.72
2023-03-06T11:12:40.575Z,2.75
2023-03-06T11:15:07.537Z,2.88
2023-03-06T11:17:48.195Z,3.70
2023-03-06T11:20:14.686Z,2.80
2023-03-06T11:22:49.299Z,3.10
2023-03-06T11:25:19.396Z,3.75
2023-03-06T11:27:55.073Z,2.60
2023-03-06T11:30:33.044Z,2.45
2023-03-06T11:33:06.660Z,2.38
2023-03-06T11:38:16.538Z,2.50
2023-03-06T11:40:51.178Z,2.42
2023-03-06T11:43:40.707Z,2.90
2023-03-06T11:46:22.711Z,2.70
2023-03-06T11:48:53.546Z,3.15
2023-03-06T11:51:29.036Z,2.80
2023-03-06T11:53:59.632Z,2.47
2023-03-06T11:56:31.457Z,3.80
2023-03-06T11:59:26.392Z,2.70
2023-03-06T12:02:11.309Z,3.35
2023-03-06T12:04:45.937Z,2.58
2023-03-06T12:07:25.412Z,3.33
2023-03-06T12:10:17.880Z,2.85
2023-03-06T12:13:02.856Z,9.02
2023-03-06T12:15:50.735Z,5.70
2023-03-06T12:18:35.308Z,5.05
2023-03-06T12:21:15.291Z,2.70
2023-03-06T12:23:51.602Z,3.33
2023-03-06T12:26:39.821Z,3.35
2023-03-06T12:29:24.710Z,5.13
2023-03-06T12:32:08.264Z,2.83
2023-03-06T12:35:26.268Z,3.35
2023-03-06T12:38:11.570Z,5.82
2023-03-06T12:40:50.144Z,2.40
2023-03-06T12:44:01.371Z,1.75
2023-03-06T12:46:30.370Z,1.83
2023-03-06T12:49:09.203Z,2.50
2023-03-06T12:51:39.685Z,2.75
2023-03-06T12:54:07.273Z,2.80
2023-03-06T12:56:35.289Z,1.98
2023-03-06T12:59:02.503Z,2.45
2023-03-06T13:01:47.985Z,2.00
2023-03-06T13:04:34.267Z,2.30
2023-03-06T13:07:27.760Z,2.17
2023-03-06T13:10:03.624Z,2.85
2023-03-06T13:12:49.859Z,3.50
2023-03-06T13:15:39.689Z,2.55
2023-03-06T13:18:22.441Z,2.60
2023-03-06T13:20:59.059Z,2.10
2023-03-06T13:23:43.082Z,1.98
2023-03-06T13:26:31.805Z,1.67
2023-03-06T13:28:58.584Z,1.83
2023-03-06T13:31:34.151Z,2.15
2023-03-06T13:34:02.822Z,1.80
2023-03-06T13:36:39.789Z,2.03
2023-03-06T13:39:11.631Z,1.83
2023-03-06T13:41:53.931Z,1.95
2023-03-06T13:44:23.548Z,1.48
2023-03-06T13:47:00.522Z,1.60
2023-03-06T13:49:29.565Z,1.73
2023-03-06T13:52:08.427Z,1.70
2023-03-06T13:54:56.327Z,1.60
2023-03-06T13:57:41.208Z,1.63
2023-03-06T14:00:26.010Z,1.75
2023-03-06T14:03:30.198Z,1.50
